Time;durP1;ratioP1;P1;durP2;ratioP2;P2;SDS_P1;SDS_P2;PMS_P1;PMS_P2;Temp;Humidity;BMP_temperature;BMP_pressure;BME280_temperature;BME280_humidity;BME280_pressure;Samples;Min_cycle;Max_cycle;Signal;HPM_P1;HPM_P2
2024/04/19 00:00:26;;;;;;;9.45;7.82;;;;;;;6.97;77.65;98222.41;5163771;27;20016;-72
2024/04/19 00:02:51;;;;;;;8.80;8.00;;;;;;;6.89;77.23;98200.44;5193864;27;20012;-73
2024/04/19 00:05:17;;;;;;;9.50;8.60;;;;;;;6.88;77.54;98221.03;5206699;27;20423;-74
2024/04/19 00:07:42;;;;;;;9.18;8.38;;;;;;;6.76;77.32;98201.41;5188569;27;20064;-73
2024/04/19 00:10:07;;;;;;;8.50;7.80;;;;;;;6.72;77.75;98199.38;5191141;27;20011;-72
2024/04/19 00:12:33;;;;;;;9.30;8.48;;;;;;;6.65;77.61;98186.03;5149061;27;20016;-74
2024/04/19 00:14:58;;;;;;;9.05;8.20;;;;;;;6.76;77.96;98200.56;5181411;27;20009;-74
2024/04/19 00:17:24;;;;;;;9.82;8.93;;;;;;;6.86;77.46;98208.94;5180468;27;20433;-73
2024/04/19 00:19:49;;;;;;;9.32;8.52;;;;;;;6.85;77.40;98210.78;5191663;27;20016;-74
2024/04/19 00:22:14;;;;;;;10.35;9.15;;;;;;;6.76;78.19;98217.47;5197282;27;20008;-73
2024/04/19 00:24:40;;;;;;;10.35;9.45;;;;;;;6.65;78.61;98226.19;5205251;27;20014;-74
2024/04/19 00:27:05;;;;;;;10.57;9.57;;;;;;;6.69;78.40;98215.88;5159798;27;20356;-75
2024/04/19 00:29:46;;;;;;;9.38;8.38;;;;;;;6.74;78.26;98219.53;5194989;27;20010;-75
2024/04/19 00:32:11;;;;;;;9.00;8.10;;;;;;;6.52;78.64;98191.50;5190968;27;20000;-75
2024/04/19 00:34:36;;;;;;;10.65;9.15;;;;;;;6.78;78.19;98212.69;5149785;27;20004;-75
2024/04/19 00:37:02;;;;;;;9.27;8.40;;;;;;;6.74;78.54;98200.81;5192578;27;20004;-75
2024/04/19 00:39:27;;;;;;;9.80;8.90;;;;;;;6.70;78.38;98206.78;5165569;27;20755;-74
2024/04/19 00:41:53;;;;;;;9.82;8.90;;;;;;;6.59;79.18;98194.13;5197261;27;20004;-74
2024/04/19 00:44:18;;;;;;;9.63;8.73;;;;;;;6.62;78.63;98202.56;5200765;27;20004;-73
2024/04/19 00:46:45;;;;;;;9.82;8.93;;;;;;;6.47;78.95;98195.88;5198638;27;20031;-74
2024/04/19 00:49:29;;;;;;;10.25;9.25;;;;;;;6.34;79.30;98196.00;5168345;27;20013;-73
2024/04/19 00:51:55;;;;;;;10.50;9.50;;;;;;;6.32;78.94;98188.19;5155609;27;20356;-75
2024/04/19 00:54:20;;;;;;;9.48;8.40;;;;;;;6.32;79.00;98176.66;5140564;27;20031;-76
2024/04/19 00:56:47;;;;;;;9.55;8.65;;;;;;;6.43;79.03;98195.50;5151022;27;20007;-76
2024/04/19 00:59:12;;;;;;;12.00;10.13;;;;;;;6.35;79.01;98171.69;5186384;27;20004;-74
2024/04/19 01:01:39;;;;;;;10.50;9.50;;;;;;;6.39;78.82;98178.25;5174369;27;20075;-75
2024/04/19 01:04:04;;;;;;;10.13;9.20;;;;;;;6.38;78.83;98187.31;5176549;27;20007;-75
2024/04/19 01:06:31;;;;;;;11.50;10.27;;;;;;;6.16;79.21;98167.34;5189450;27;20464;-75
2024/04/19 01:08:56;;;;;;;11.93;10.70;;;;;;;6.35;78.94;98197.63;5187556;27;20000;-75
2024/04/19 01:11:27;;;;;;;12.35;11.18;;;;;;;6.15;79.20;98171.03;5187402;27;20341;-75
2024/04/19 01:13:53;;;;;;;11.88;10.77;;;;;;;6.11;78.88;98172.50;5185839;27;20012;-74
2024/04/19 01:16:18;;;;;;;13.07;11.75;;;;;;;6.01;79.32;98180.19;5167049;27;20008;-74
2024/04/19 01:18:52;;;;;;;12.40;11.30;;;;;;;6.05;79.48;98176.03;5190755;27;20040;-75
2024/04/19 01:21:20;;;;;;;13.18;11.93;;;;;;;6.18;79.10;98197.34;5198857;27;20004;-75
2024/04/19 01:23:46;;;;;;;12.32;9.95;;;;;;;6.04;79.41;98169.06;5193613;27;20464;-74
2024/04/19 01:26:11;;;;;;;11.75;10.73;;;;;;;6.06;79.65;98180.34;5209298;27;20031;-74
2024/04/19 01:28:37;;;;;;;12.18;11.13;;;;;;;5.85;79.81;98172.69;5184626;27;20008;-74
2024/04/19 01:31:02;;;;;;;11.48;10.32;;;;;;;5.83;80.68;98162.19;5207437;27;20019;-74
2024/04/19 01:33:27;;;;;;;12.98;11.60;;;;;;;5.77;79.99;98151.50;5188004;27;20456;-73
2024/04/19 01:35:53;;;;;;;12.77;11.57;;;;;;;5.92;80.18;98176.13;5172421;27;20004;-73
2024/04/19 01:38:38;;;;;;;12.80;11.60;;;;;;;5.86;80.56;98166.31;5166513;27;20000;-73
2024/04/19 01:41:04;;;;;;;13.52;12.07;;;;;;;5.88;80.41;98166.91;5202295;27;20008;-74
2024/04/19 01:43:29;;;;;;;12.68;11.48;;;;;;;5.93;80.61;98172.41;5191859;27;20079;-73
2024/04/19 01:45:55;;;;;;;13.20;11.77;;;;;;;5.93;80.60;98172.41;5167089;27;20056;-73
2024/04/19 01:48:20;;;;;;;12.55;11.43;;;;;;;5.86;80.42;98168.97;5196511;27;20018;-73
2024/04/19 01:50:45;;;;;;;12.27;11.07;;;;;;;5.76;80.48;98150.72;5169075;27;20005;-74
2024/04/19 01:53:11;;;;;;;13.02;11.73;;;;;;;5.88;80.63;98169.59;5192122;27;20000;-75
2024/04/19 01:55:36;;;;;;;10.70;9.65;;;;;;;5.76;80.97;98171.25;5194391;27;20011;-74
2024/04/19 01:58:01;;;;;;;12.15;11.00;;;;;;;5.85;80.83;98161.97;5189390;27;20019;-73
2024/04/19 02:00:27;;;;;;;10.82;9.82;;;;;;;5.81;80.60;98150.06;5197322;27;20526;-73
2024/04/19 02:02:52;;;;;;;10.60;9.60;;;;;;;5.97;80.35;98168.28;5186492;27;20081;-72
2024/04/19 02:05:18;;;;;;;11.90;10.70;;;;;;;6.00;80.64;98154.47;5194791;27;20475;-73
2024/04/19 02:07:43;;;;;;;11.82;10.73;;;;;;;5.96;81.15;98134.56;5204319;27;20076;-74
2024/04/19 02:10:08;;;;;;;9.55;8.65;;;;;;;6.09;80.79;98145.19;5197027;27;20459;-74
2024/04/19 02:12:34;;;;;;;10.38;9.48;;;;;;;6.12;80.22;98134.03;5189634;27;20003;-74
2024/04/19 02:14:59;;;;;;;10.35;9.45;;;;;;;6.14;80.37;98137.31;5193992;27;20078;-74
2024/04/19 02:17:25;;;;;;;10.88;9.70;;;;;;;6.15;80.22;98122.91;5173543;27;20078;-73
2024/04/19 02:19:50;;;;;;;10.43;8.75;;;;;;;6.21;80.13;98138.88;5170022;27;20003;-73
2024/04/19 02:22:15;;;;;;;8.63;7.85;;;;;;;6.20;79.73;98120.41;5197761;27;20487;-73
2024/04/19 02:24:41;;;;;;;10.15;9.15;;;;;;;6.09;80.04;98107.75;5159964;27;20000;-73
2024/04/19 02:27:17;;;;;;;12.27;9.30;;;;;;;6.06;79.92;98100.97;5168533;27;20092;-73
2024/04/19 02:32:26;;;;;;;10.80;9.68;;;;;;;6.18;80.20;98111.78;5190135;27;20481;-73
2024/04/19 02:34:52;;;;;;;10.20;9.30;;;;;;;6.16;80.07;98113.88;5193476;27;20048;-73
2024/04/19 02:37:17;;;;;;;10.73;9.73;;;;;;;6.07;80.40;98093.75;5172077;27;20004;-73
2024/04/19 02:39:43;;;;;;;10.43;9.43;;;;;;;6.08;80.48;98095.41;5191288;27;20003;-73
2024/04/19 02:42:08;;;;;;;11.30;10.20;;;;;;;6.12;79.71;98096.59;5173268;27;20351;-74
2024/04/19 02:44:51;;;;;;;12.48;11.27;;;;;;;6.14;80.00;98099.88;5167550;27;20028;-74
2024/04/19 02:47:17;;;;;;;11.48;10.27;;;;;;;6.20;79.25;98093.66;5197684;27;20004;-74
2024/04/19 02:49:42;;;;;;;10.57;9.57;;;;;;;5.89;79.17;98033.06;5198680;27;20004;-73
2024/04/19 02:52:08;;;;;;;11.32;10.23;;;;;;;5.92;79.57;98037.16;5195288;27;20078;-73
2024/04/19 02:54:33;;;;;;;11.80;10.55;;;;;;;5.85;79.04;98026.53;5168311;27;20004;-74
2024/04/19 02:56:58;;;;;;;11.35;10.13;;;;;;;5.99;79.24;98059.31;5196991;27;20416;-73
2024/04/19 02:59:24;;;;;;;12.98;11.70;;;;;;;5.86;78.92;98016.66;5166608;27;20013;-73
2024/04/19 03:01:49;;;;;;;11.95;10.75;;;;;;;6.28;78.94;98069.31;5196956;27;20009;-73
2024/04/19 03:04:31;;;;;;;11.80;9.48;;;;;;;6.29;78.77;98065.59;5191205;27;20004;-74
2024/04/19 03:06:56;;;;;;;9.63;8.73;;;;;;;6.19;79.17;98059.94;5199416;27;20018;-74
2024/04/19 03:09:21;;;;;;;11.30;9.82;;;;;;;6.33;78.52;98061.44;5193632;27;20008;-73
2024/04/19 03:11:47;;;;;;;10.98;8.75;;;;;;;6.20;78.31;98040.19;5196583;27;20026;-74
2024/04/19 03:14:12;;;;;;;9.70;8.60;;;;;;;6.04;78.63;98004.16;5154905;27;20024;-73
2024/04/19 03:16:37;;;;;;;9.52;8.63;;;;;;;6.10;77.55;98015.81;5202181;27;20017;-73
2024/04/19 03:19:03;;;;;;;14.50;12.32;;;;;;;6.35;78.12;98054.00;5169565;27;20005;-74
2024/04/19 03:21:29;;;;;;;10.80;9.70;;;;;;;6.17;78.51;98019.22;5195861;27;20003;-73
2024/04/19 03:23:54;;;;;;;9.80;8.80;;;;;;;6.28;77.63;98031.88;5197598;27;20147;-73
2024/04/19 03:26:20;;;;;;;11.23;8.80;;;;;;;6.31;77.40;98022.59;5202914;27;20004;-73
2024/04/19 03:28:45;;;;;;;9.73;8.70;;;;;;;6.32;77.65;98030.41;5169710;27;20423;-73
2024/04/19 03:31:10;;;;;;;9.38;8.55;;;;;;;6.19;77.65;98003.78;5184313;27;20357;-74
2024/04/19 03:33:36;;;;;;;11.27;9.18;;;;;;;6.31;77.61;98010.03;5151273;27;20008;-73
2024/04/19 03:36:06;;;;;;;10.18;9.25;;;;;;;6.18;77.41;97988.81;5163599;27;20005;-74
2024/04/19 03:38:32;;;;;;;10.10;9.10;;;;;;;6.24;77.50;97990.56;5173564;27;20001;-75
2024/04/19 03:40:58;;;;;;;12.88;11.57;;;;;;;5.99;77.71;97952.38;5181189;27;20356;-75
2024/04/19 03:43:23;;;;;;;11.68;10.50;;;;;;;6.04;77.70;97963.25;5149579;27;20000;-74
2024/04/19 03:45:49;;;;;;;13.43;12.02;;;;;;;6.18;77.39;97978.09;5167031;27;20000;-74
2024/04/19 03:48:15;;;;;;;13.13;11.60;;;;;;;6.26;77.84;97996.50;5175265;27;19999;-74
2024/04/19 03:50:43;;;;;;;13.88;10.63;;;;;;;6.13;77.93;97973.44;5190907;27;20440;-74
2024/04/19 03:53:08;;;;;;;11.77;10.57;;;;;;;6.08;78.08;97975.94;5177373;27;20029;-75
2024/04/19 03:55:34;;;;;;;12.45;11.20;;;;;;;6.25;77.73;97985.00;5183958;27;20000;-72
2024/04/19 03:58:00;;;;;;;11.85;10.40;;;;;;;6.11;78.01;97993.41;5191428;27;20414;-73
2024/04/19 04:00:25;;;;;;;11.02;9.93;;;;;;;6.09;78.11;98000.81;5207460;27;19996;-73
2024/04/19 04:02:51;;;;;;;11.23;9.23;;;;;;;6.15;78.59;97995.41;5148849;27;20543;-74
2024/04/19 04:05:17;;;;;;;10.50;9.60;;;;;;;5.76;78.66;97936.97;5197736;27;20556;-75
2024/04/19 04:07:42;;;;;;;11.15;10.05;;;;;;;5.84;78.36;97925.16;5181983;27;20015;-74
2024/04/19 04:10:08;;;;;;;11.38;10.18;;;;;;;6.05;78.39;97955.00;5173982;27;20011;-74
2024/04/19 04:12:33;;;;;;;20.33;16.33;;;;;;;5.93;78.24;97926.53;5165673;27;20436;-74
2024/04/19 04:14:59;;;;;;;12.63;11.30;;;;;;;5.88;78.13;97918.38;5195901;27;20333;-74
2024/04/19 04:17:24;;;;;;;15.57;13.93;;;;;;;6.14;78.38;97964.34;5173887;27;20336;-74
2024/04/19 04:19:50;;;;;;;12.35;11.05;;;;;;;5.92;77.76;97912.38;5201366;27;20478;-74
2024/04/19 04:22:15;;;;;;;11.30;10.20;;;;;;;5.69;78.01;97872.09;5193912;27;20035;-74
2024/04/19 04:24:41;;;;;;;12.60;11.38;;;;;;;6.02;78.03;97936.72;5200821;27;20044;-74
2024/04/19 04:27:06;;;;;;;15.20;11.40;;;;;;;6.21;77.75;97948.22;5198238;27;20005;-74
2024/04/19 04:29:31;;;;;;;11.85;10.70;;;;;;;6.03;77.85;97932.19;5172739;27;20004;-73
2024/04/19 04:31:57;;;;;;;12.38;11.15;;;;;;;6.24;77.86;97955.81;5186941;27;20004;-73
2024/04/19 04:36:57;;;;;;;13.77;11.77;;;;;;;6.23;78.11;97964.91;5180653;27;20012;-73
2024/04/19 04:39:22;;;;;;;12.90;11.70;;;;;;;6.26;78.03;97953.72;5182705;27;20051;-72
2024/04/19 04:41:48;;;;;;;13.88;12.52;;;;;;;6.30;78.17;97957.63;5179371;27;20025;-72
2024/04/19 04:44:15;;;;;;;13.10;11.88;;;;;;;6.18;78.35;97940.69;5175410;27;20068;-73
2024/04/19 04:46:40;;;;;;;13.32;12.02;;;;;;;6.32;78.26;97946.69;5182979;27;20017;-74
2024/04/19 04:49:06;;;;;;;12.65;11.35;;;;;;;6.23;78.28;97943.50;5158254;27;20027;-73
2024/04/19 04:51:31;;;;;;;14.63;13.20;;;;;;;6.25;78.35;97946.78;5192794;27;20011;-72
2024/04/19 04:53:57;;;;;;;13.45;12.15;;;;;;;6.20;78.75;97944.75;5156980;27;20004;-74
2024/04/19 04:56:22;;;;;;;14.32;12.80;;;;;;;6.28;78.40;97932.94;5178709;27;20012;-72
2024/04/19 04:58:47;;;;;;;15.30;13.70;;;;;;;6.10;78.98;97927.59;5188096;27;20008;-74
2024/04/19 05:01:13;;;;;;;16.50;14.80;;;;;;;6.32;78.86;97950.19;5193261;27;20000;-73
2024/04/19 05:03:38;;;;;;;15.02;13.52;;;;;;;6.28;78.92;97955.16;5184815;27;20414;-74
2024/04/19 05:06:04;;;;;;;16.58;13.85;;;;;;;6.16;79.39;97937.41;5177183;27;20487;-73
2024/04/19 05:08:29;;;;;;;16.38;14.43;;;;;;;6.32;79.22;97947.50;5153025;27;20011;-74
2024/04/19 05:10:55;;;;;;;20.13;18.08;;;;;;;6.32;79.69;97936.00;5170825;27;20101;-73
2024/04/19 05:13:20;;;;;;;25.73;21.38;;;;;;;6.40;79.67;97933.81;5161782;27;20001;-73
2024/04/19 05:15:49;;;;;;;44.25;33.58;;;;;;;6.35;79.81;97931.00;5179853;27;20087;-73
2024/04/19 05:18:17;;;;;;;39.20;29.75;;;;;;;6.34;80.17;97923.22;5155390;27;20008;-74
2024/04/19 05:20:45;;;;;;;81.78;54.25;;;;;;;6.35;80.46;97936.34;5177807;27;20020;-74
2024/04/19 05:23:10;;;;;;;88.40;60.38;;;;;;;6.42;80.11;97923.72;5152224;27;20511;-74
2024/04/19 05:25:36;;;;;;;92.00;64.20;;;;;;;6.34;80.50;97916.00;5183940;27;20019;-72
2024/04/19 05:28:02;;;;;;;35.55;30.95;;;;;;;6.35;80.98;97920.28;5178343;27;20064;-71
2024/04/19 05:30:27;;;;;;;26.60;23.80;;;;;;;6.45;80.55;97920.59;5180228;27;20007;-73
2024/04/19 05:32:53;;;;;;;28.58;23.83;;;;;;;6.58;80.70;97924.97;5178772;27;20004;-73
2024/04/19 05:35:18;;;;;;;29.45;26.45;;;;;;;6.49;80.74;97911.06;5187277;27;20019;-73
2024/04/19 05:37:44;;;;;;;23.08;20.77;;;;;;;6.51;80.23;97892.13;5181534;27;20048;-74
2024/04/19 05:40:09;;;;;;;22.13;19.77;;;;;;;6.59;80.36;97905.19;5152448;27;20099;-72
2024/04/19 05:42:35;;;;;;;20.55;18.52;;;;;;;6.63;80.39;97915.22;5179119;27;20024;-73
2024/04/19 05:45:01;;;;;;;18.98;16.05;;;;;;;6.59;79.73;97900.66;5178525;27;20472;-73
2024/04/19 05:47:26;;;;;;;17.08;15.27;;;;;;;6.59;80.07;97906.00;5143302;27;20657;-72
2024/04/19 05:49:52;;;;;;;17.45;15.75;;;;;;;6.60;79.78;97909.50;5176545;27;20012;-74
2024/04/19 05:52:17;;;;;;;16.40;14.77;;;;;;;6.55;79.51;97915.53;5194535;27;20037;-73
2024/04/19 05:54:42;;;;;;;15.65;14.10;;;;;;;6.42;79.83;97894.28;5183823;27;19999;-74
2024/04/19 05:57:08;;;;;;;13.77;12.38;;;;;;;6.50;79.15;97891.31;5181900;27;20008;-74
2024/04/19 05:59:33;;;;;;;14.38;11.73;;;;;;;6.39;79.34;97910.81;5176499;27;20470;-74
2024/04/19 06:02:00;;;;;;;13.23;11.85;;;;;;;6.36;78.75;97905.91;5173742;27;20004;-74
2024/04/19 06:04:34;;;;;;;;;;;;;;;6.27;78.40;97909.94;5188760;27;20019;-73
2024/04/19 06:07:00;;;;;;;11.90;10.70;;;;;;;6.36;77.98;97883.69;5180236;27;19928;-74
2024/04/19 06:09:25;;;;;;;11.38;10.05;;;;;;;6.42;76.84;97891.63;5178349;27;20054;-74
2024/04/19 06:11:50;;;;;;;11.05;10.05;;;;;;;6.49;77.39;97905.72;5184561;27;20004;-73
2024/04/19 06:14:16;;;;;;;10.52;9.27;;;;;;;6.37;77.38;97902.16;5184672;27;20082;-73
2024/04/19 06:16:41;;;;;;;10.55;9.45;;;;;;;6.25;77.53;97880.72;5175998;27;20480;-75
2024/04/19 06:19:07;;;;;;;10.63;9.57;;;;;;;6.29;77.76;97899.81;5170341;27;20040;-74
2024/04/19 06:21:32;;;;;;;10.73;9.70;;;;;;;6.17;78.17;97877.53;5174418;27;20019;-74
2024/04/19 06:23:57;;;;;;;11.93;10.73;;;;;;;6.32;77.95;97872.63;5175267;27;20381;-73
2024/04/19 06:26:23;;;;;;;11.82;10.68;;;;;;;6.22;77.58;97869.66;5176356;27;20012;-72
2024/04/19 06:28:49;;;;;;;11.32;10.13;;;;;;;6.34;77.73;97867.06;5160279;27;20019;-73
2024/04/19 06:31:15;;;;;;;12.38;10.77;;;;;;;6.26;77.89;97857.47;5185920;27;20341;-74
2024/04/19 06:33:40;;;;;;;12.73;11.43;;;;;;;6.34;78.17;97859.84;5129081;27;20240;-74
2024/04/19 06:36:06;;;;;;;14.20;11.65;;;;;;;6.49;78.20;97873.63;5175606;27;20492;-73
2024/04/19 06:38:32;;;;;;;13.00;11.43;;;;;;;6.44;78.08;97864.66;5187092;27;20004;-73
2024/04/19 06:40:57;;;;;;;11.73;10.45;;;;;;;6.48;77.58;97845.25;5158832;27;20011;-74
2024/04/19 06:43:23;;;;;;;11.32;10.05;;;;;;;6.56;77.47;97863.66;5146677;27;20087;-74
2024/04/19 06:45:48;;;;;;;10.98;9.95;;;;;;;6.56;77.61;97852.16;5186530;27;20015;-74
2024/04/19 06:48:14;;;;;;;12.02;10.25;;;;;;;6.61;77.65;97839.72;5175266;27;20015;-74
2024/04/19 06:50:39;;;;;;;11.52;10.32;;;;;;;6.71;77.65;97833.81;5174194;27;20000;-74
2024/04/19 06:53:05;;;;;;;11.18;10.18;;;;;;;6.82;77.67;97831.16;5175993;27;20005;-74
2024/04/19 06:55:32;;;;;;;12.25;10.98;;;;;;;6.97;77.04;97826.19;5154698;27;20011;-73
2024/04/19 06:57:57;;;;;;;13.02;10.10;;;;;;;7.05;76.93;97830.38;5189900;27;20001;-74
2024/04/19 07:00:23;;;;;;;11.18;10.07;;;;;;;7.11;76.88;97823.31;5150025;27;19997;-75
2024/04/19 07:02:48;;;;;;;10.65;9.50;;;;;;;7.21;76.40;97819.00;5184670;27;20011;-74
2024/04/19 07:05:14;;;;;;;10.57;9.57;;;;;;;7.18;76.17;97803.41;5185574;27;20000;-73
2024/04/19 07:07:39;;;;;;;10.50;9.50;;;;;;;7.21;75.58;97802.13;5181704;27;20062;-74
2024/04/19 07:10:05;;;;;;;11.50;9.80;;;;;;;7.22;75.53;97803.75;5185436;27;20015;-74
2024/04/19 07:12:31;;;;;;;10.95;9.25;;;;;;;7.27;74.35;97803.88;5177361;27;20015;-74
2024/04/19 07:14:57;;;;;;;10.05;9.05;;;;;;;7.26;74.16;97802.25;5181407;27;20004;-74
2024/04/19 07:17:22;;;;;;;11.23;10.02;;;;;;;7.19;75.53;97798.88;5198269;27;20372;-74
2024/04/19 07:19:48;;;;;;;11.20;9.50;;;;;;;7.33;75.43;97795.69;5181467;27;20036;-75
2024/04/19 07:22:14;;;;;;;11.35;10.23;;;;;;;6.98;75.41;97766.25;5182215;27;20015;-74
2024/04/19 07:24:40;;;;;;;10.13;9.13;;;;;;;7.03;75.65;97784.28;5190040;27;20460;-72
2024/04/19 07:27:05;;;;;;;10.48;9.48;;;;;;;7.02;76.13;97773.81;5180876;27;20005;-74
2024/04/19 07:29:31;;;;;;;11.77;10.68;;;;;;;7.01;77.19;97754.25;5174392;27;20045;-74
2024/04/19 07:31:57;;;;;;;11.82;10.50;;;;;;;7.11;76.05;97761.72;5182315;27;20008;-73
2024/04/19 07:34:24;;;;;;;11.05;10.05;;;;;;;7.10;76.34;97765.44;5123211;27;20016;-73
2024/04/19 07:36:49;;;;;;;12.60;10.82;;;;;;;6.90;78.23;97758.56;5159014;27;20415;-73
2024/04/19 07:39:15;;;;;;;11.27;10.15;;;;;;;7.03;77.46;97765.56;5192991;27;19996;-72
2024/04/19 07:41:41;;;;;;;11.75;10.65;;;;;;;6.74;79.04;97742.38;5176848;27;20004;-72
2024/04/19 07:44:07;;;;;;;12.40;10.45;;;;;;;6.80;79.34;97734.25;5182328;27;20008;-72
2024/04/19 07:46:32;;;;;;;12.50;11.30;;;;;;;6.72;79.38;97728.44;5157907;27;20014;-73
2024/04/19 07:48:58;;;;;;;12.63;11.43;;;;;;;6.78;80.50;97733.66;5157131;27;20412;-73
2024/04/19 07:51:23;;;;;;;12.95;11.75;;;;;;;6.43;81.17;97703.38;5155803;27;20016;-72
2024/04/19 07:53:49;;;;;;;12.85;11.65;;;;;;;6.55;81.36;97728.28;5185337;27;20000;-72
2024/04/19 07:56:14;;;;;;;13.38;11.95;;;;;;;6.50;81.06;97720.13;5181996;27;20000;-73
2024/04/19 07:58:39;;;;;;;13.25;11.93;;;;;;;6.40;81.87;97705.69;5191481;27;20452;-72
2024/04/19 08:01:05;;;;;;;13.52;12.23;;;;;;;6.43;82.44;97708.72;5175870;27;20004;-72
2024/04/19 08:03:30;;;;;;;14.32;12.63;;;;;;;6.58;82.94;97711.75;5188467;27;20464;-73
2024/04/19 08:05:55;;;;;;;14.95;13.50;;;;;;;6.72;83.66;97718.50;5189346;27;20004;-72
2024/04/19 08:08:21;;;;;;;13.10;11.73;;;;;;;6.46;82.36;97708.28;5191657;27;20004;-72
2024/04/19 08:10:46;;;;;;;14.18;12.77;;;;;;;6.30;83.76;97711.59;5153658;27;20048;-73
2024/04/19 08:13:11;;;;;;;13.68;12.38;;;;;;;6.47;83.01;97699.19;5163760;27;20015;-73
2024/04/19 08:15:37;;;;;;;13.88;12.57;;;;;;;6.35;83.80;97706.38;5186415;27;20000;-73
2024/04/19 08:18:02;;;;;;;14.70;13.30;;;;;;;6.25;84.09;97708.81;5121487;27;20000;-73
2024/04/19 08:20:28;;;;;;;15.40;13.85;;;;;;;6.30;85.04;97694.75;5189117;27;20036;-72
2024/04/19 08:22:53;;;;;;;16.30;14.57;;;;;;;6.29;84.89;97693.91;5183585;27;20052;-72
2024/04/19 08:25:18;;;;;;;15.52;14.02;;;;;;;6.47;84.46;97707.22;5179773;27;20000;-75
2024/04/19 08:27:44;;;;;;;17.77;16.08;;;;;;;6.33;85.52;97687.06;5188865;27;20008;-75
2024/04/19 08:30:10;;;;;;;16.15;14.55;;;;;;;6.43;85.30;97681.97;5189060;27;19997;-71
2024/04/19 08:32:36;;;;;;;15.23;13.82;;;;;;;6.48;84.81;97673.25;5172477;27;20007;-73
2024/04/19 08:35:03;;;;;;;16.65;15.05;;;;;;;6.47;85.34;97680.47;5151588;27;21793;-71
2024/04/19 08:37:31;;;;;;;14.43;13.13;;;;;;;6.44;84.90;97667.53;5195620;27;20004;-71
2024/04/19 08:39:56;;;;;;;14.98;13.68;;;;;;;6.26;84.96;97643.56;5184318;27;20083;-71
2024/04/19 08:42:25;;;;;;;14.35;13.05;;;;;;;6.24;85.42;97673.22;5192083;27;20018;-70
2024/04/19 08:44:50;;;;;;;12.50;11.40;;;;;;;6.21;85.11;97656.81;5183984;27;20019;-71
2024/04/19 08:47:17;;;;;;;13.50;12.20;;;;;;;6.49;84.86;97658.84;5183270;27;20008;-72
2024/04/19 08:49:49;;;;;;;12.90;11.80;;;;;;;6.27;85.28;97639.88;5153402;27;20004;-71
2024/04/19 08:52:16;;;;;;;14.95;13.07;;;;;;;6.34;85.91;97645.91;5199031;27;20336;-71
2024/04/19 08:54:42;;;;;;;12.93;11.73;;;;;;;6.22;85.70;97637.88;5179468;27;20019;-71
2024/04/19 08:57:08;;;;;;;12.68;11.55;;;;;;;6.35;85.85;97636.84;5159696;27;20012;-71
2024/04/19 08:59:33;;;;;;;11.98;10.93;;;;;;;6.14;86.13;97634.72;5157511;27;20008;-71
2024/04/19 09:01:59;;;;;;;11.18;10.15;;;;;;;6.26;85.66;97622.19;5185288;27;20045;-71
2024/04/19 09:04:24;;;;;;;11.68;10.63;;;;;;;6.29;85.83;97627.06;5155547;27;20019;-72
2024/04/19 09:06:50;;;;;;;13.13;11.93;;;;;;;6.34;85.89;97626.38;5182127;27;20016;-73
2024/04/19 09:09:16;;;;;;;12.23;11.05;;;;;;;6.44;85.88;97623.97;5186469;27;20008;-71
2024/04/19 09:11:44;;;;;;;11.57;10.45;;;;;;;6.43;85.90;97609.75;5179695;27;20003;-71
2024/04/19 09:14:09;;;;;;;10.63;9.70;;;;;;;6.35;85.61;97604.75;5151229;27;20080;-70
2024/04/19 09:16:35;;;;;;;11.13;10.20;;;;;;;6.30;85.82;97601.16;5184861;27;20083;-70
2024/04/19 09:19:00;;;;;;;11.10;10.10;;;;;;;6.38;85.81;97604.28;5186319;27;20015;-70
2024/04/19 09:21:27;;;;;;;9.82;8.90;;;;;;;6.28;86.05;97598.69;5182706;27;20018;-70
2024/04/19 09:23:52;;;;;;;10.48;9.57;;;;;;;6.23;85.99;97595.94;5182239;27;20057;-71
2024/04/19 09:26:19;;;;;;;10.90;9.90;;;;;;;6.24;86.25;97586.84;5174770;27;20016;-71
2024/04/19 09:28:44;;;;;;;11.13;10.10;;;;;;;6.32;86.03;97593.72;5166496;27;20008;-71
2024/04/19 09:31:10;;;;;;;10.85;9.85;;;;;;;6.32;85.89;97589.19;5182707;27;20078;-71
2024/04/19 09:33:37;;;;;;;10.93;10.02;;;;;;;6.30;85.86;97596.63;5176793;27;20493;-72
2024/04/19 09:36:03;;;;;;;11.63;10.15;;;;;;;6.20;86.10;97588.38;5187800;27;20036;-71
2024/04/19 09:38:29;;;;;;;11.65;10.65;;;;;;;6.19;86.29;97574.19;5182838;27;20087;-71
2024/04/19 09:40:54;;;;;;;10.00;9.20;;;;;;;6.27;85.77;97573.03;5158521;27;20005;-71
2024/04/19 09:43:23;;;;;;;10.73;9.73;;;;;;;6.25;86.12;97572.44;5192111;27;20023;-71
2024/04/19 09:45:55;;;;;;;9.45;8.65;;;;;;;6.25;85.42;97562.53;5192712;27;20012;-70
2024/04/19 09:48:21;;;;;;;10.20;9.32;;;;;;;6.24;85.89;97546.75;5178103;27;20008;-71
2024/04/19 09:50:49;;;;;;;10.88;9.88;;;;;;;6.30;85.61;97556.53;5186955;27;19997;-71
2024/04/19 09:53:17;;;;;;;10.98;10.00;;;;;;;6.32;85.91;97556.28;5191129;27;20575;-71
2024/04/19 09:56:03;;;;;;;9.18;8.38;;;;;;;6.23;85.96;97558.50;5182657;27;20365;-70
2024/04/19 09:58:28;;;;;;;9.55;8.70;;;;;;;6.20;86.19;97546.41;5180519;27;20082;-70
2024/04/19 10:00:56;;;;;;;8.50;7.80;;;;;;;6.02;86.19;97540.34;5158772;27;20016;-71
2024/04/19 10:03:22;;;;;;;9.25;8.40;;;;;;;6.09;86.39;97535.72;5183655;27;20059;-70
2024/04/19 10:05:47;;;;;;;9.57;8.77;;;;;;;6.28;85.56;97526.50;5160480;27;20005;-70
2024/04/19 10:08:13;;;;;;;10.55;9.57;;;;;;;6.28;85.71;97538.03;5175118;27;20008;-70
2024/04/19 10:10:39;;;;;;;7.93;7.22;;;;;;;6.39;85.81;97531.06;5176534;27;20005;-70
2024/04/19 10:13:04;;;;;;;8.75;7.95;;;;;;;6.15;86.36;97518.72;5148398;27;20004;-70
2024/04/19 10:15:30;;;;;;;8.10;7.40;;;;;;;6.18;85.96;97518.28;5182868;27;20013;-71
2024/04/19 10:17:55;;;;;;;8.98;8.10;;;;;;;6.12;86.69;97513.84;5185421;27;20023;-71
2024/04/19 10:20:25;;;;;;;8.75;8.05;;;;;;;6.10;86.71;97515.94;5155009;27;20005;-71
2024/04/19 10:22:51;;;;;;;9.32;8.52;;;;;;;6.10;87.11;97510.59;5179643;27;20001;-72
2024/04/19 10:25:20;;;;;;;7.43;6.82;;;;;;;6.05;86.33;97497.09;5177421;27;20036;-72
2024/04/19 10:27:46;;;;;;;7.38;6.75;;;;;;;6.02;86.18;97493.03;5144737;27;20497;-74
2024/04/19 10:30:13;;;;;;;6.53;6.03;;;;;;;6.03;85.97;97501.88;5153046;27;20008;-71
2024/04/19 10:32:38;;;;;;;6.70;6.07;;;;;;;6.08;85.69;97491.31;5185359;27;20007;-71
2024/04/19 10:35:04;;;;;;;7.65;6.82;;;;;;;6.11;86.47;97501.53;5141108;27;20020;-71
2024/04/19 10:37:29;;;;;;;7.18;6.53;;;;;;;6.02;86.35;97476.22;5184981;27;21563;-71
2024/04/19 10:39:55;;;;;;;5.90;5.40;;;;;;;5.80;85.91;97477.78;5151337;27;20461;-71
2024/04/19 10:42:20;;;;;;;7.10;6.53;;;;;;;5.90;86.76;97483.41;5192526;27;20035;-70
2024/04/19 10:44:48;;;;;;;6.32;5.75;;;;;;;5.94;86.39;97489.91;5187389;27;20005;-71
2024/04/19 10:47:13;;;;;;;6.88;5.90;;;;;;;5.92;86.30;97474.13;5154563;27;20005;-71
2024/04/19 10:49:38;;;;;;;6.60;6.00;;;;;;;5.86;87.22;97466.22;5188471;27;20005;-72
2024/04/19 10:52:05;;;;;;;6.55;6.00;;;;;;;6.07;86.96;97468.28;5145824;27;20016;-73
2024/04/19 10:54:30;;;;;;;6.82;6.20;;;;;;;6.06;86.80;97456.00;5179171;27;20012;-74
2024/04/19 10:56:57;;;;;;;7.07;6.22;;;;;;;6.03;87.19;97461.78;5175250;22;20015;-74
2024/04/19 10:59:22;;;;;;;4.57;4.28;;;;;;;5.72;86.68;97441.53;5213046;27;20785;-76
2024/04/19 11:01:49;;;;;;;5.20;4.80;;;;;;;5.82;86.20;97465.00;5237929;27;20056;-74
2024/04/19 11:04:15;;;;;;;4.72;4.43;;;;;;;5.77;86.16;97467.56;5237288;27;20091;-74
2024/04/19 11:06:40;;;;;;;4.53;4.13;;;;;;;5.72;86.71;97454.13;5235301;27;20012;-74
2024/04/19 11:09:07;;;;;;;5.15;4.45;;;;;;;5.64;86.42;97430.41;5209524;27;20007;-75
2024/04/19 11:11:37;;;;;;;4.93;4.50;;;;;;;5.84;85.98;97436.19;5209768;27;20032;-74
2024/04/19 11:14:06;;;;;;;5.20;4.55;;;;;;;5.87;86.67;97441.13;5182320;27;20015;-74
2024/04/19 11:16:32;;;;;;;4.97;4.57;;;;;;;5.83;86.90;97429.25;5211084;27;20018;-74
2024/04/19 11:18:57;;;;;;;4.65;4.20;;;;;;;5.67;87.26;97420.06;5183307;27;20000;-74
2024/04/19 11:21:22;;;;;;;4.15;3.72;;;;;;;5.77;87.18;97420.28;5200108;27;20456;-74
2024/04/19 11:23:48;;;;;;;4.55;4.15;;;;;;;5.47;86.95;97415.06;5208624;27;20011;-74
2024/04/19 11:26:17;;;;;;;3.85;3.55;;;;;;;5.57;86.96;97415.31;5181605;27;20086;-74
2024/04/19 11:28:49;;;;;;;4.07;3.67;;;;;;;5.75;86.77;97406.38;5180626;27;20370;-75
2024/04/19 11:31:14;;;;;;;3.65;3.35;;;;;;;5.52;86.91;97406.38;5208965;27;20475;-75